You are not logged in, Click here to log in
機場資訊:RJGG Welcome to Taiwan Airways 台灣虛擬航空
ICAO: RJGG Country: 日本中部地區愛知縣名古屋市以南的常滑市、伊勢灣上的一個人工島上
Latitude: 34.8591 Longitude: 136.815
Total Arrivals: 28 Total Departures: 32
Latest Arrival: KE751 (RKSI-RJGG)LI WEN. Tu Latest Departure: JL3117 (RJGG-RJCC)LI WEN. Tu
Scenery:
METAR : RJGG 132030Z 01011KT 9999 FEW020 BKN040 20/13 Q1018 NOSIG

中部国際空港NGO